Terminal Aerodrome Forecast
Issued by NWS Shreveport, LA

Home | Current Version | Previous Version | Text Only | Print | Product List | Glossary On
Versions: 1 2 3 4 5 6 7 8 9 10 11 12 13 14 15 16 17
000
FTUS44 KSHV 021300 AAA
TAFELD
TAF AMD
KELD 021354Z 0214/0312 15006KT P6SM SCT030 BKN050
      TEMPO 0214/0216 5SM BR BKN015 OVC030
     FM021700 19011G16KT P6SM BKN040 BKN070
     FM022000 19012G18KT P6SM VCSH BKN045 BKN100
     FM030000 16006KT P6SM BKN050 BKN250
     FM030600 22008KT 4SM TSRA BR OVC025CB
     FM031000 27008KT 4SM BR OVC015=

USA.gov is the U.S. government's official web portal to all federal, state and local government web resources and services.